National Weather Service Raw Text Product

Displaying AFOS PIL: TAFDSM Received: 2018-07-12 08:10 UTC


938 
FTUS43 KDMX 120810 AAA
TAFDSM
TAF AMD
KDSM 120810Z 1208/1306 17010KT P6SM SKC
     FM121800 20011G16KT P6SM SCT050 SCT250
     FM130100 17010KT P6SM SCT250=